Time;durP1;ratioP1;P1;durP2;ratioP2;P2;SDS_P1;SDS_P2;PMS_P1;PMS_P2;Temp;Humidity;BMP_temperature;BMP_pressure;BME280_temperature;BME280_humidity;BME280_pressure;Samples;Min_cycle;Max_cycle;Signal;HPM_P1;HPM_P2
2021/05/08 00:01:39;;;;;;;9.45;5.18;;;4.90;1.00;;;;;;5027572;28;20049;-72
2021/05/08 00:04:05;;;;;;;6.55;5.80;;;4.90;1.00;;;;;;5022435;28;20034;-73
2021/05/08 00:06:33;;;;;;;6.07;5.25;;;4.80;1.00;;;;;;5015318;28;20754;-73
2021/05/08 00:09:00;;;;;;;7.22;6.53;;;4.80;1.00;;;;;;5032858;28;20018;-74
2021/05/08 00:11:26;;;;;;;11.38;7.45;;;4.80;1.00;;;;;;5032797;28;20022;-72
2021/05/08 00:13:52;;;;;;;6.95;6.15;;;4.70;1.00;;;;;;5025446;28;20049;-75
2021/05/08 00:16:18;;;;;;;9.48;7.07;;;4.80;1.00;;;;;;5033557;28;20025;-74
2021/05/08 00:18:43;;;;;;;7.15;6.47;;;4.80;1.00;;;;;;5029886;28;20066;-72
2021/05/08 00:21:09;;;;;;;9.50;6.65;;;4.80;1.00;;;;;;5030634;28;20234;-74
2021/05/08 00:23:34;;;;;;;10.25;7.10;;;4.70;1.00;;;;;;5044938;28;20028;-73
2021/05/08 00:26:02;;;;;;;7.78;7.07;;;4.80;1.00;;;;;;5046597;28;20068;-75
2021/05/08 00:28:28;;;;;;;7.85;7.13;;;4.70;1.00;;;;;;5032875;28;20036;-73
2021/05/08 00:30:53;;;;;;;11.27;8.32;;;4.70;1.00;;;;;;5024571;28;20026;-74
2021/05/08 00:33:19;;;;;;;9.93;7.93;;;4.60;1.00;;;;;;5015965;28;20029;-74
2021/05/08 00:35:44;;;;;;;10.27;7.90;;;4.80;1.00;;;;;;5013344;28;20030;-74
2021/05/08 00:38:10;;;;;;;12.27;7.10;;;5.00;1.00;;;;;;5022261;28;20029;-75
2021/05/08 00:40:36;;;;;;;8.55;7.75;;;5.10;1.00;;;;;;5027785;28;20057;-73
2021/05/08 00:43:01;;;;;;;7.90;7.10;;;5.00;1.00;;;;;;5022520;28;20018;-73
2021/05/08 00:45:27;;;;;;;9.48;7.70;;;5.10;1.00;;;;;;5039880;28;20030;-72
2021/05/08 00:48:06;;;;;;;11.13;7.55;;;5.20;1.00;;;;;;5031128;28;20052;-74
2021/05/08 00:50:33;;;;;;;10.25;7.13;;;5.20;1.00;;;;;;5049724;28;20025;-73
2021/05/08 00:52:59;;;;;;;11.38;6.95;;;5.00;1.00;;;;;;5005961;28;20026;-73
2021/05/08 00:55:25;;;;;;;8.35;7.45;;;4.90;1.00;;;;;;5023282;28;20029;-73
2021/05/08 00:57:51;;;;;;;8.75;7.82;;;4.80;1.00;;;;;;5020790;28;20029;-74
2021/05/08 01:00:17;;;;;;;8.27;7.47;;;4.70;1.00;;;;;;5024120;28;20108;-75
2021/05/08 01:02:42;;;;;;;12.15;7.63;;;4.60;1.00;;;;;;5024833;28;20026;-74
2021/05/08 01:05:09;;;;;;;8.88;7.75;;;4.60;1.00;;;;;;5029645;28;20175;-74
2021/05/08 01:07:38;;;;;;;8.82;7.93;;;4.50;1.00;;;;;;5035756;28;20034;-74
2021/05/08 01:10:06;;;;;;;8.23;6.95;;;4.50;1.00;;;;;;5022990;28;20022;-74
2021/05/08 01:12:32;;;;;;;10.38;7.93;;;4.40;1.00;;;;;;5023179;28;20033;-75
2021/05/08 01:14:58;;;;;;;8.73;7.80;;;4.40;1.00;;;;;;5033543;28;20025;-73
2021/05/08 01:17:24;;;;;;;10.43;7.97;;;4.40;1.00;;;;;;5036123;28;20040;-72
2021/05/08 01:19:50;;;;;;;9.73;8.55;;;4.40;1.00;;;;;;5025591;28;20052;-74
2021/05/08 01:22:15;;;;;;;10.57;8.45;;;4.30;1.00;;;;;;5015518;28;20094;-74
2021/05/08 01:24:41;;;;;;;9.20;7.30;;;4.30;1.00;;;;;;5049706;28;20053;-74
2021/05/08 01:27:07;;;;;;;9.48;7.82;;;4.30;1.00;;;;;;5036806;28;20108;-74
2021/05/08 01:29:32;;;;;;;9.93;7.40;;;4.20;1.00;;;;;;5023532;28;20029;-74
2021/05/08 01:31:58;;;;;;;10.73;7.63;;;4.20;1.00;;;;;;5019015;28;20431;-73
2021/05/08 01:34:23;;;;;;;10.48;8.52;;;4.10;1.00;;;;;;5018361;28;20028;-73
2021/05/08 01:36:49;;;;;;;8.70;7.18;;;4.20;1.00;;;;;;5013534;28;20397;-72
2021/05/08 01:39:14;;;;;;;7.80;7.10;;;4.20;1.00;;;;;;5040002;28;20036;-74
2021/05/08 01:41:40;;;;;;;9.65;8.27;;;4.10;1.00;;;;;;5023789;28;20393;-74
2021/05/08 01:44:09;;;;;;;11.02;8.25;;;4.10;1.00;;;;;;5013997;28;20556;-73
2021/05/08 01:46:35;;;;;;;11.88;9.75;;;4.10;1.00;;;;;;5014885;28;20396;-73
2021/05/08 01:49:02;;;;;;;11.30;9.35;;;4.10;1.00;;;;;;5024154;28;20520;-73
2021/05/08 01:51:27;;;;;;;12.73;7.93;;;4.10;1.00;;;;;;5027875;28;20031;-73
2021/05/08 01:53:53;;;;;;;10.43;8.10;;;4.00;1.00;;;;;;5011828;28;20445;-73
2021/05/08 01:56:19;;;;;;;9.52;8.55;;;4.00;1.00;;;;;;5024169;28;20021;-74
2021/05/08 01:58:44;;;;;;;10.35;8.18;;;4.00;1.00;;;;;;5018058;28;20042;-73
2021/05/08 02:01:10;;;;;;;9.50;8.15;;;4.00;1.00;;;;;;5019524;28;20021;-74
2021/05/08 02:03:36;;;;;;;11.38;9.82;;;4.00;1.00;;;;;;5021075;28;20108;-74
2021/05/08 02:06:02;;;;;;;10.02;7.07;;;4.00;1.00;;;;;;5020996;28;20060;-73
2021/05/08 02:08:27;;;;;;;8.77;7.88;;;4.00;1.00;;;;;;5024564;28;20045;-73
2021/05/08 02:10:53;;;;;;;8.80;7.95;;;3.90;1.00;;;;;;5033856;28;20029;-74
2021/05/08 02:13:18;;;;;;;7.70;6.80;;;4.00;1.00;;;;;;5029936;28;20373;-73
2021/05/08 02:15:44;;;;;;;9.73;7.57;;;4.00;1.00;;;;;;5024815;28;20552;-75
2021/05/08 02:18:10;;;;;;;9.35;7.68;;;4.00;1.00;;;;;;5031771;28;20512;-74
2021/05/08 02:20:41;;;;;;;9.77;7.97;;;3.90;1.00;;;;;;5014963;28;20087;-74
2021/05/08 02:23:10;;;;;;;10.93;8.98;;;3.90;1.00;;;;;;5019726;28;20022;-72
2021/05/08 02:25:36;;;;;;;12.23;9.88;;;3.90;1.00;;;;;;5017757;28;20025;-74
2021/05/08 02:28:02;;;;;;;10.68;8.70;;;3.90;1.00;;;;;;5017506;28;20589;-73
2021/05/08 02:30:29;;;;;;;9.48;8.55;;;3.90;1.00;;;;;;5013848;28;20021;-72
2021/05/08 02:32:55;;;;;;;13.23;11.00;;;3.80;1.00;;;;;;5029284;28;20022;-74
2021/05/08 02:35:22;;;;;;;11.30;9.63;;;3.80;1.00;;;;;;5030978;28;20076;-73
2021/05/08 02:37:48;;;;;;;13.15;8.95;;;3.80;1.00;;;;;;5013434;28;20092;-73
2021/05/08 02:40:19;;;;;;;9.77;8.82;;;3.80;1.00;;;;;;5032225;28;20026;-73
2021/05/08 02:42:45;;;;;;;10.23;8.13;;;3.80;1.00;;;;;;5008260;28;20029;-73
2021/05/08 02:45:12;;;;;;;10.40;8.43;;;3.80;1.00;;;;;;5020189;28;20054;-73
2021/05/08 02:47:43;;;;;;;10.25;9.05;;;3.70;1.00;;;;;;5015503;28;20088;-73
2021/05/08 02:50:10;;;;;;;12.07;9.75;;;3.70;1.00;;;;;;5029297;28;20025;-73
2021/05/08 02:52:36;;;;;;;9.65;8.63;;;3.70;1.00;;;;;;5019660;28;20030;-74
2021/05/08 02:55:02;;;;;;;11.80;8.77;;;3.70;1.00;;;;;;5025293;28;20032;-73
2021/05/08 02:57:28;;;;;;;8.70;7.90;;;3.70;1.00;;;;;;5032765;28;20014;-73
2021/05/08 02:59:54;;;;;;;7.97;7.20;;;3.70;1.00;;;;;;5009854;28;20525;-73
2021/05/08 03:02:19;;;;;;;9.40;7.53;;;3.70;1.00;;;;;;5032788;28;20022;-74
2021/05/08 03:04:45;;;;;;;8.57;7.78;;;3.70;1.00;;;;;;5030647;28;20077;-73
2021/05/08 03:07:10;;;;;;;10.43;7.28;;;3.70;1.00;;;;;;5016499;28;20367;-73
2021/05/08 03:09:36;;;;;;;8.13;7.32;;;3.70;1.00;;;;;;5016086;28;20109;-73
2021/05/08 03:12:04;;;;;;;11.27;8.13;;;3.70;1.00;;;;;;5013387;28;20026;-73
2021/05/08 03:14:30;;;;;;;8.57;7.65;;;3.70;1.00;;;;;;5034729;28;20032;-72
2021/05/08 03:16:57;;;;;;;8.63;7.82;;;3.70;1.00;;;;;;5013133;28;20026;-74
2021/05/08 03:19:22;;;;;;;7.60;6.82;;;3.70;1.00;;;;;;5013996;28;20022;-73
2021/05/08 03:21:48;;;;;;;8.25;7.47;;;3.60;1.00;;;;;;5015193;28;20022;-73
2021/05/08 03:24:14;;;;;;;9.75;7.53;;;3.60;1.00;;;;;;5015059;28;20025;-73
2021/05/08 03:26:39;;;;;;;8.52;7.03;;;3.60;1.00;;;;;;5013743;28;20038;-73
2021/05/08 03:29:05;;;;;;;8.77;7.00;;;3.50;1.00;;;;;;5017337;28;21884;-74
2021/05/08 03:31:32;;;;;;;10.68;7.43;;;3.60;1.00;;;;;;5022605;28;20030;-73
2021/05/08 03:33:58;;;;;;;9.52;7.07;;;3.50;1.00;;;;;;5045993;28;20025;-73
2021/05/08 03:36:24;;;;;;;8.57;6.97;;;3.50;1.00;;;;;;5036129;28;20507;-73
2021/05/08 03:38:50;;;;;;;13.98;7.93;;;3.40;1.00;;;;;;5015373;28;20053;-74
2021/05/08 03:41:15;;;;;;;9.98;7.45;;;3.50;1.00;;;;;;5029740;28;20098;-73
2021/05/08 03:43:41;;;;;;;9.00;7.30;;;3.50;1.00;;;;;;5027693;28;20029;-73
2021/05/08 03:46:07;;;;;;;8.50;6.97;;;3.50;1.00;;;;;;5032817;28;20448;-72
2021/05/08 03:48:32;;;;;;;9.50;7.60;;;3.50;1.00;;;;;;5030473;28;20064;-72
2021/05/08 03:50:58;;;;;;;7.22;6.53;;;3.50;1.00;;;;;;5041174;28;20022;-73
2021/05/08 03:53:24;;;;;;;11.55;7.80;;;3.50;1.00;;;;;;5046392;28;20034;-73
2021/05/08 03:55:51;;;;;;;7.45;6.18;;;3.60;1.00;;;;;;5049309;28;20103;-73
2021/05/08 03:58:24;;;;;;;8.07;7.05;;;3.60;1.00;;;;;;5032997;28;20076;-73
2021/05/08 04:00:50;;;;;;;6.80;6.20;;;3.60;1.00;;;;;;5025364;28;20036;-73
2021/05/08 04:03:15;;;;;;;7.82;6.55;;;3.70;1.00;;;;;;5039258;28;20477;-73
2021/05/08 04:05:41;;;;;;;6.78;6.18;;;3.70;1.00;;;;;;5023431;28;20041;-72
2021/05/08 04:08:06;;;;;;;12.52;7.05;;;3.80;1.00;;;;;;5026730;28;20056;-72
2021/05/08 04:10:32;;;;;;;6.53;5.60;;;3.80;1.00;;;;;;5040695;28;20022;-73
2021/05/08 04:12:57;;;;;;;7.47;6.65;;;3.80;1.00;;;;;;5029749;28;20029;-73
2021/05/08 04:15:23;;;;;;;10.95;6.38;;;3.90;1.00;;;;;;5023458;28;20034;-72
2021/05/08 04:17:48;;;;;;;8.65;5.85;;;4.00;1.00;;;;;;5024527;28;20022;-72
2021/05/08 04:20:14;;;;;;;6.35;5.65;;;4.30;1.00;;;;;;5032696;28;20065;-72
2021/05/08 04:22:40;;;;;;;6.68;6.00;;;4.80;1.00;;;;;;5040387;28;20029;-73
2021/05/08 04:25:06;;;;;;;10.82;5.45;;;5.40;99.90;;;;;;5029213;28;20037;-72
2021/05/08 04:27:31;;;;;;;5.78;5.22;;;6.20;99.90;;;;;;5020742;28;20072;-72
2021/05/08 04:29:57;;;;;;;6.30;4.75;;;6.70;99.90;;;;;;5030089;28;20026;-72
2021/05/08 04:32:23;;;;;;;6.28;4.47;;;7.10;99.90;;;;;;5020425;28;20025;-72
2021/05/08 04:34:48;;;;;;;5.45;4.30;;;7.40;99.90;;;;;;5027454;28;20052;-71
2021/05/08 04:37:14;;;;;;;6.80;4.53;;;7.60;99.90;;;;;;5035662;28;20036;-72
2021/05/08 04:39:39;;;;;;;4.78;4.32;;;7.80;83.30;;;;;;5062873;28;20041;-73
2021/05/08 04:42:05;;;;;;;5.60;4.25;;;7.70;99.90;;;;;;5045177;28;20037;-75
2021/05/08 04:44:31;;;;;;;5.40;3.88;;;8.20;62.90;;;;;;5040810;28;20048;-72
2021/05/08 04:46:56;;;;;;;4.90;4.35;;;8.20;26.40;;;;;;5033260;28;20110;-72
2021/05/08 04:49:22;;;;;;;6.82;4.80;;;7.70;99.90;;;;;;5045367;28;20017;-73
2021/05/08 04:51:48;;;;;;;5.38;4.72;;;7.60;87.10;;;;;;5036127;28;20025;-73
2021/05/08 04:54:13;;;;;;;5.13;4.63;;;7.60;99.90;;;;;;5034522;28;20025;-74
2021/05/08 04:56:39;;;;;;;4.63;4.13;;;8.10;98.30;;;;;;5035439;28;20033;-73
2021/05/08 04:59:04;;;;;;;5.72;4.40;;;8.80;1.00;;;;;;5032251;28;20048;-73
2021/05/08 05:01:31;;;;;;;8.20;5.20;;;8.60;1.00;;;;;;5042772;28;20033;-73
2021/05/08 05:03:57;;;;;;;6.07;4.78;;;9.20;1.00;;;;;;5033343;28;20022;-72
2021/05/08 05:06:22;;;;;;;8.18;4.93;;;9.50;91.10;;;;;;5024878;28;20026;-73
2021/05/08 05:08:48;;;;;;;8.25;4.93;;;9.20;99.90;;;;;;5034986;28;20025;-73
2021/05/08 05:11:15;;;;;;;7.38;3.92;;;8.90;99.90;;;;;;5045221;28;20277;-74
2021/05/08 05:13:41;;;;;;;5.82;4.05;;;8.80;99.90;;;;;;5027238;28;20096;-74
2021/05/08 05:16:09;;;;;;;4.97;4.47;;;8.80;99.90;;;;;;5026191;28;20026;-73
2021/05/08 05:18:35;;;;;;;4.53;4.00;;;8.80;99.90;;;;;;5041549;28;20029;-72
2021/05/08 05:21:00;;;;;;;5.65;4.18;;;9.40;99.90;;;;;;5032846;28;20026;-72
2021/05/08 05:23:27;;;;;;;4.88;4.38;;;9.50;1.00;;;;;;5039906;28;20041;-73
2021/05/08 05:25:53;;;;;;;5.82;4.75;;;9.60;99.90;;;;;;5041257;28;20025;-72
2021/05/08 05:28:23;;;;;;;4.90;4.30;;;9.80;99.90;;;;;;5040843;28;20030;-72
2021/05/08 05:30:50;;;;;;;4.32;3.95;;;10.00;99.90;;;;;;5050483;28;20050;-73
2021/05/08 05:33:15;;;;;;;4.97;3.72;;;10.00;81.10;;;;;;5034277;28;20412;-73
2021/05/08 05:35:41;;;;;;;4.45;4.05;;;10.10;1.00;;;;;;5029123;28;20032;-72
2021/05/08 05:38:07;;;;;;;5.15;3.63;;;10.40;99.90;;;;;;5029019;28;20034;-75
2021/05/08 05:40:33;;;;;;;4.93;3.90;;;10.70;99.90;;;;;;5022769;28;20320;-73
2021/05/08 05:42:59;;;;;;;5.32;4.35;;;11.00;99.90;;;;;;5020075;28;20098;-73
2021/05/08 05:45:24;;;;;;;4.47;4.07;;;11.00;99.90;;;;;;5014264;28;20022;-73
2021/05/08 05:48:01;;;;;;;4.60;3.53;;;11.30;99.90;;;;;;5027187;28;20037;-72
2021/05/08 05:50:28;;;;;;;4.00;3.60;;;11.20;99.90;;;;;;5016875;28;20497;-73
2021/05/08 05:52:54;;;;;;;4.35;3.95;;;11.20;1.00;;;;;;5016561;28;20037;-73
2021/05/08 05:55:23;;;;;;;4.72;3.65;;;11.70;99.90;;;;;;5023697;28;20025;-73
2021/05/08 05:57:50;;;;;;;5.78;5.20;;;12.30;99.90;;;;;;5025000;28;20030;-74
2021/05/08 06:00:17;;;;;;;5.00;4.50;;;13.20;1.00;;;;;;5018787;28;20112;-74
2021/05/08 06:02:43;;;;;;;5.95;3.78;;;13.10;99.90;;;;;;5030645;28;20559;-74
2021/05/08 06:05:09;;;;;;;4.55;3.75;;;12.30;1.00;;;;;;5017884;28;20068;-73
2021/05/08 06:07:35;;;;;;;5.20;4.70;;;12.30;1.00;;;;;;5023480;28;20026;-73
2021/05/08 06:10:03;;;;;;;4.95;4.30;;;12.10;99.90;;;;;;5030310;28;20044;-72
2021/05/08 06:12:28;;;;;;;5.57;4.00;;;12.00;1.00;;;;;;5026648;28;20037;-74
2021/05/08 06:14:54;;;;;;;4.80;4.20;;;11.50;1.00;;;;;;5016891;28;20018;-74
2021/05/08 06:17:19;;;;;;;7.28;4.45;;;10.40;1.00;;;;;;5033278;28;20084;-73
2021/05/08 06:19:45;;;;;;;5.40;4.07;;;9.70;1.00;;;;;;5017849;28;20030;-73
2021/05/08 06:22:10;;;;;;;4.13;3.83;;;9.70;99.90;;;;;;5039746;28;20088;-74
2021/05/08 06:24:36;;;;;;;4.47;3.78;;;9.60;99.90;;;;;;5033344;28;20065;-74
2021/05/08 06:27:01;;;;;;;6.63;4.15;;;9.50;99.90;;;;;;5023959;28;20029;-74
2021/05/08 06:29:27;;;;;;;9.30;4.55;;;9.40;99.90;;;;;;5022642;28;20429;-73
2021/05/08 06:31:52;;;;;;;5.57;4.43;;;9.40;2.10;;;;;;5018980;28;20030;-75
2021/05/08 06:34:18;;;;;;;6.28;5.40;;;9.60;1.00;;;;;;5022436;28;20029;-73
2021/05/08 06:36:45;;;;;;;5.95;5.30;;;10.20;1.00;;;;;;5025312;28;20058;-74
2021/05/08 06:39:10;;;;;;;6.30;5.22;;;10.40;1.00;;;;;;5014540;28;20034;-74
2021/05/08 06:41:36;;;;;;;5.65;4.93;;;10.30;99.90;;;;;;5030584;28;20516;-74
2021/05/08 06:44:02;;;;;;;4.88;4.47;;;10.30;1.00;;;;;;5032778;28;20112;-73
2021/05/08 06:46:27;;;;;;;7.03;4.30;;;10.20;99.90;;;;;;5037210;28;20495;-74
2021/05/08 06:48:53;;;;;;;5.53;4.45;;;10.10;99.90;;;;;;5023966;28;20037;-74
2021/05/08 06:51:18;;;;;;;7.88;4.70;;;10.10;99.90;;;;;;5021610;28;20033;-74
2021/05/08 06:53:44;;;;;;;5.60;5.10;;;10.60;99.90;;;;;;5032344;28;20039;-73
2021/05/08 06:56:10;;;;;;;6.05;4.78;;;10.90;1.00;;;;;;5041979;28;20049;-72
2021/05/08 06:58:35;;;;;;;6.95;4.95;;;10.70;1.00;;;;;;5025499;28;20072;-73
2021/05/08 07:01:01;;;;;;;7.53;5.00;;;11.00;99.90;;;;;;5024498;28;20033;-74
2021/05/08 07:03:27;;;;;;;6.40;4.55;;;11.10;1.00;;;;;;5027385;28;20037;-73
2021/05/08 07:05:52;;;;;;;8.35;5.15;;;11.40;99.90;;;;;;5030856;28;20033;-73
2021/05/08 07:08:19;;;;;;;5.15;4.65;;;11.40;99.90;;;;;;5022592;28;20030;-73
2021/05/08 07:10:45;;;;;;;6.05;4.28;;;11.50;99.90;;;;;;5030159;28;20068;-73
2021/05/08 07:13:12;;;;;;;12.80;5.25;;;11.40;99.90;;;;;;5013919;28;20029;-73
2021/05/08 07:15:37;;;;;;;12.23;4.35;;;11.60;99.90;;;;;;5022258;28;20026;-74
2021/05/08 07:18:04;;;;;;;6.43;5.43;;;11.50;99.90;;;;;;5050023;28;20060;-74
2021/05/08 07:20:31;;;;;;;7.78;4.05;;;11.70;99.90;;;;;;5024332;28;20062;-74
2021/05/08 07:22:57;;;;;;;8.02;4.43;;;11.90;78.50;;;;;;5018607;28;20025;-75
2021/05/08 07:25:22;;;;;;;4.95;4.45;;;11.90;99.90;;;;;;5026540;28;20026;-73
2021/05/08 07:27:48;;;;;;;5.30;4.15;;;12.00;99.90;;;;;;5023819;28;20028;-73
2021/05/08 07:30:14;;;;;;;5.20;4.15;;;12.20;1.00;;;;;;5014293;28;20033;-74
2021/05/08 07:32:40;;;;;;;4.05;3.55;;;12.20;1.00;;;;;;5030955;28;20037;-74
2021/05/08 07:35:09;;;;;;;4.70;3.75;;;12.50;99.90;;;;;;5019286;28;20018;-74
2021/05/08 07:37:35;;;;;;;4.55;3.50;;;12.60;1.00;;;;;;5014529;28;20045;-73
2021/05/08 07:40:01;;;;;;;3.80;3.50;;;13.00;99.90;;;;;;5020287;28;20429;-74
2021/05/08 07:42:26;;;;;;;3.60;3.30;;;12.90;99.90;;;;;;5027452;28;20041;-74
2021/05/08 07:44:52;;;;;;;4.88;3.53;;;12.70;99.90;;;;;;5026649;28;20040;-73
2021/05/08 07:47:18;;;;;;;7.28;3.90;;;12.70;99.90;;;;;;5020228;28;20567;-73
2021/05/08 07:49:43;;;;;;;4.88;3.63;;;13.30;99.90;;;;;;5028790;28;20041;-73
2021/05/08 07:52:09;;;;;;;3.92;3.15;;;13.70;99.90;;;;;;5016306;28;20022;-74
2021/05/08 07:54:35;;;;;;;4.30;3.90;;;13.80;99.90;;;;;;5017343;28;20090;-73
2021/05/08 07:57:00;;;;;;;5.65;4.40;;;14.10;99.90;;;;;;5013196;28;20424;-73
2021/05/08 07:59:26;;;;;;;6.65;3.58;;;13.90;99.90;;;;;;5016388;28;20112;-72
2021/05/08 08:01:51;;;;;;;6.38;3.53;;;14.00;99.90;;;;;;5019960;28;20481;-73
2021/05/08 08:04:17;;;;;;;2.83;2.63;;;13.80;99.90;;;;;;5016782;28;20099;-73
2021/05/08 08:06:43;;;;;;;6.30;3.58;;;13.60;99.90;;;;;;5015236;28;20032;-73
2021/05/08 08:09:08;;;;;;;5.13;3.72;;;13.70;99.90;;;;;;5031892;28;20029;-74
2021/05/08 08:11:34;;;;;;;4.07;3.20;;;14.20;99.90;;;;;;5027264;28;20026;-74
2021/05/08 08:14:00;;;;;;;3.85;3.45;;;14.10;99.90;;;;;;5029217;28;20025;-77
2021/05/08 08:16:26;;;;;;;8.25;2.75;;;14.00;99.90;;;;;;5030683;28;20022;-76
2021/05/08 08:18:51;;;;;;;3.28;2.20;;;14.00;99.90;;;;;;5034685;28;20030;-75
2021/05/08 08:21:17;;;;;;;3.13;2.00;;;13.80;99.90;;;;;;5018508;28;20049;-75
2021/05/08 08:23:43;;;;;;;2.63;2.17;;;14.10;99.90;;;;;;5037474;28;20109;-76
2021/05/08 08:26:08;;;;;;;2.63;1.90;;;14.20;99.90;;;;;;5031080;28;20021;-75
2021/05/08 08:28:34;;;;;;;6.10;2.30;;;14.20;99.90;;;;;;5036529;28;20079;-75
2021/05/08 08:31:00;;;;;;;4.32;1.95;;;14.50;99.90;;;;;;5046067;28;20044;-75
2021/05/08 08:33:25;;;;;;;2.55;1.90;;;14.80;99.90;;;;;;5035762;28;20377;-74
2021/05/08 08:35:53;;;;;;;3.88;1.90;;;14.70;91.90;;;;;;5028970;28;20033;-76
2021/05/08 08:38:18;;;;;;;5.10;2.00;;;14.80;90.10;;;;;;5050249;28;20060;-75
2021/05/08 08:40:45;;;;;;;2.22;1.75;;;15.00;64.00;;;;;;5038848;28;20021;-76
2021/05/08 08:43:12;;;;;;;3.22;2.42;;;14.90;62.90;;;;;;5024500;28;20034;-75
2021/05/08 08:45:37;;;;;;;2.78;1.92;;;15.20;66.20;;;;;;5023683;28;20030;-76
2021/05/08 08:48:03;;;;;;;2.28;2.00;;;15.40;58.00;;;;;;5050033;28;20475;-76
2021/05/08 08:50:31;;;;;;;1.98;1.38;;;15.70;38.70;;;;;;5049151;28;20022;-74
2021/05/08 08:52:57;;;;;;;1.95;1.50;;;16.10;6.40;;;;;;5037953;28;20109;-76
2021/05/08 08:55:23;;;;;;;3.60;2.00;;;16.10;1.00;;;;;;5042957;28;20021;-77
2021/05/08 08:57:51;;;;;;;3.28;1.60;;;16.30;1.00;;;;;;5050944;28;20029;-77
2021/05/08 09:00:17;;;;;;;2.67;1.83;;;16.70;1.00;;;;;;5048590;28;20030;-74
2021/05/08 09:02:44;;;;;;;1.67;1.38;;;16.10;1.00;;;;;;5050391;28;20120;-75
2021/05/08 09:05:13;;;;;;;1.80;1.40;;;16.00;1.00;;;;;;5050500;28;20572;-73
2021/05/08 09:07:43;;;;;;;1.45;1.20;;;16.30;1.00;;;;;;5062816;28;20128;-74
2021/05/08 09:10:19;;;;;;;1.92;1.45;;;16.30;1.00;;;;;;5036050;28;20022;-77
2021/05/08 09:12:46;;;;;;;1.40;1.20;;;16.00;1.00;;;;;;5049825;28;20022;-77
2021/05/08 09:15:12;;;;;;;2.53;1.45;;;16.00;1.00;;;;;;5036772;28;20035;-77
2021/05/08 09:17:44;;;;;;;2.63;1.00;;;16.60;1.00;;;;;;5044996;28;20025;-77
2021/05/08 09:20:11;;;;;;;1.77;1.30;;;16.40;1.00;;;;;;5032233;28;20014;-76
2021/05/08 09:22:42;;;;;;;3.90;1.50;;;16.40;1.00;;;;;;5049541;28;20010;-76
2021/05/08 09:25:16;;;;;;;2.15;1.60;;;16.50;1.00;;;;;;5041943;28;20026;-77
2021/05/08 09:27:48;;;;;;;2.58;1.33;;;16.70;1.00;;;;;;5031182;28;20033;-78
2021/05/08 09:30:28;;;;;;;2.75;1.45;;;17.20;1.00;;;;;;5023532;28;20034;-78
2021/05/08 09:32:54;;;;;;;4.03;1.60;;;16.80;1.00;;;;;;5023215;28;20041;-76
2021/05/08 09:35:34;;;;;;;2.53;1.17;;;17.20;1.00;;;;;;5018447;28;20022;-77
2021/05/08 09:38:10;;;;;;;3.15;1.38;;;16.90;1.00;;;;;;5034013;28;20029;-77
2021/05/08 09:40:37;;;;;;;1.83;1.40;;;17.30;1.00;;;;;;5020414;28;20124;-77
2021/05/08 09:43:12;;;;;;;1.33;1.08;;;17.40;1.00;;;;;;5017785;28;20033;-76
2021/05/08 09:45:41;;;;;;;1.08;0.98;;;17.30;1.00;;;;;;5025650;28;20060;-78
2021/05/08 09:48:17;;;;;;;1.77;1.02;;;17.30;1.00;;;;;;5033369;28;20034;-77
2021/05/08 09:50:43;;;;;;;3.53;1.35;;;17.30;1.00;;;;;;5021065;28;20069;-76
2021/05/08 09:53:08;;;;;;;3.42;1.70;;;17.20;1.00;;;;;;5036263;28;20021;-77
2021/05/08 09:55:35;;;;;;;1.20;0.90;;;17.20;1.00;;;;;;5046799;28;20034;-76
2021/05/08 09:58:02;;;;;;;0.90;0.90;;;17.20;1.00;;;;;;5019532;28;20048;-76
2021/05/08 10:00:30;;;;;;;2.08;1.10;;;17.50;1.00;;;;;;5054830;28;20048;-77
2021/05/08 10:03:10;;;;;;;1.13;0.90;;;17.30;1.00;;;;;;5021937;28;20017;-74
2021/05/08 10:05:38;;;;;;;1.52;1.27;;;17.30;1.00;;;;;;5034763;28;20058;-76
2021/05/08 10:08:04;;;;;;;1.73;1.00;;;17.30;1.00;;;;;;5018758;28;20484;-77
2021/05/08 10:10:30;;;;;;;1.55;1.45;;;17.40;1.00;;;;;;5019946;28;20030;-75
2021/05/08 10:12:57;;;;;;;2.72;2.15;;;17.60;1.00;;;;;;5024351;28;20022;-78
2021/05/08 10:15:23;;;;;;;1.63;1.00;;;17.90;1.00;;;;;;5025595;28;20068;-76
2021/05/08 10:17:51;;;;;;;1.08;0.98;;;17.90;1.00;;;;;;5030856;28;20029;-77
2021/05/08 10:20:19;;;;;;;1.65;1.30;;;17.90;1.00;;;;;;5036318;28;20081;-77
2021/05/08 10:22:59;;;;;;;2.08;1.30;;;17.70;1.00;;;;;;5026993;28;20389;-74
2021/05/08 10:25:26;;;;;;;3.08;0.90;;;17.50;1.00;;;;;;5024596;28;20497;-78
2021/05/08 10:27:52;;;;;;;5.18;1.25;;;17.60;1.00;;;;;;5019706;28;20501;-76
2021/05/08 10:30:36;;;;;;;3.53;1.35;;;18.00;1.00;;;;;;5018895;28;20029;-77
2021/05/08 10:33:17;;;;;;;1.40;1.30;;;18.10;1.00;;;;;;5015973;28;20421;-75
2021/05/08 10:35:44;;;;;;;1.67;1.50;;;18.40;1.00;;;;;;5043541;28;20030;-77
2021/05/08 10:38:27;;;;;;;2.65;1.83;;;18.60;1.00;;;;;;5015857;28;20049;-76
2021/05/08 10:40:59;;;;;;;1.00;0.90;;;18.10;1.00;;;;;;5005748;28;20037;-80
2021/05/08 10:43:49;;;;;;;1.25;1.08;;;18.30;1.00;;;;;;5015672;28;20389;-76
2021/05/08 10:46:17;;;;;;;2.55;0.70;;;18.40;1.00;;;;;;5012689;28;20052;-73
2021/05/08 10:49:12;;;;;;;1.88;1.00;;;18.80;1.00;;;;;;5010707;28;20036;-72
2021/05/08 10:51:59;;;;;;;0.85;0.80;;;18.90;1.00;;;;;;5011712;28;20041;-73
2021/05/08 10:54:42;;;;;;;2.75;1.05;;;19.20;1.00;;;;;;5015670;28;20046;-72
2021/05/08 10:57:18;;;;;;;1.10;1.00;;;19.40;1.00;;;;;;5014230;28;20155;-73
2021/05/08 11:00:02;;;;;;;1.30;1.20;;;20.30;1.00;;;;;;5008394;28;20447;-73
2021/05/08 11:02:43;;;;;;;3.10;1.23;;;20.20;1.00;;;;;;5012516;28;20104;-72
2021/05/08 11:05:22;;;;;;;1.02;0.93;;;19.80;1.00;;;;;;5015057;28;20104;-73
2021/05/08 11:07:48;;;;;;;1.20;1.02;;;19.60;1.00;;;;;;5009511;28;20433;-73
2021/05/08 11:10:32;;;;;;;4.43;1.30;;;19.20;1.00;;;;;;5010922;28;20046;-83
2021/05/08 11:13:27;;;;;;;1.48;1.00;;;19.00;1.00;;;;;;5028629;28;20033;-78
2021/05/08 11:18:37;;;;;;;1.20;0.90;;;19.10;1.00;;;;;;5020076;28;20448;-72
2021/05/08 11:21:14;;;;;;;1.95;0.98;;;19.10;1.00;;;;;;5010177;28;20037;-74
2021/05/08 11:23:46;;;;;;;2.03;1.33;;;19.40;1.00;;;;;;5020038;28;20059;-74
2021/05/08 11:26:29;;;;;;;1.55;0.80;;;19.40;1.00;;;;;;5034540;28;20037;-76
2021/05/08 11:29:24;;;;;;;2.83;0.95;;;19.50;1.00;;;;;;5016302;28;20022;-77
2021/05/08 11:31:51;;;;;;;1.58;1.00;;;20.30;1.00;;;;;;5017072;28;20029;-74
2021/05/08 11:34:27;;;;;;;1.08;0.98;;;20.00;1.00;;;;;;5025248;28;20021;-75
2021/05/08 11:37:02;;;;;;;4.72;1.00;;;19.90;1.00;;;;;;5021747;28;20381;-75
2021/05/08 11:39:28;;;;;;;1.73;0.93;;;20.20;1.00;;;;;;5034252;28;20048;-74
2021/05/08 11:41:56;;;;;;;2.05;0.93;;;20.30;1.00;;;;;;5027245;28;20449;-73
2021/05/08 11:44:24;;;;;;;1.75;1.40;;;20.40;1.00;;;;;;5023250;28;20083;-74
2021/05/08 11:46:58;;;;;;;1.52;1.05;;;20.20;1.00;;;;;;5015141;28;20057;-74
2021/05/08 11:49:25;;;;;;;1.00;0.93;;;20.40;1.00;;;;;;5015014;28;20048;-75
2021/05/08 11:51:51;;;;;;;2.15;0.88;;;20.60;1.00;;;;;;5022832;28;20032;-76
2021/05/08 11:54:17;;;;;;;2.85;1.35;;;20.50;1.00;;;;;;5022732;28;20069;-76
2021/05/08 11:56:43;;;;;;;0.90;0.90;;;20.00;1.00;;;;;;5027751;28;20101;-76
2021/05/08 11:59:08;;;;;;;0.98;0.90;;;20.00;1.00;;;;;;5030461;28;20029;-74
2021/05/08 12:01:34;;;;;;;0.80;0.80;;;20.00;1.00;;;;;;5029592;28;20026;-76
2021/05/08 12:04:07;;;;;;;2.00;0.98;;;20.00;1.00;;;;;;5019732;28;20076;-76
2021/05/08 12:06:34;;;;;;;1.30;1.00;;;19.80;1.00;;;;;;5018903;28;20083;-76
2021/05/08 12:09:10;;;;;;;1.65;1.17;;;19.90;1.00;;;;;;5021864;28;20022;-76
2021/05/08 12:11:36;;;;;;;2.05;0.90;;;20.10;1.00;;;;;;5038588;28;20489;-74
2021/05/08 12:14:13;;;;;;;0.70;0.70;;;19.70;1.00;;;;;;5052361;28;20112;-75
2021/05/08 12:16:40;;;;;;;1.20;0.95;;;19.80;1.00;;;;;;5023877;28;20033;-74
2021/05/08 12:19:07;;;;;;;0.70;0.70;;;20.20;1.00;;;;;;5052430;28;20061;-73
2021/05/08 12:21:32;;;;;;;1.00;0.70;;;20.40;1.00;;;;;;5014531;28;20033;-75
2021/05/08 12:23:58;;;;;;;1.90;1.35;;;20.80;1.00;;;;;;5015820;28;20026;-74
2021/05/08 12:26:24;;;;;;;1.25;1.10;;;20.80;1.00;;;;;;5019989;28;20112;-75
2021/05/08 12:28:50;;;;;;;0.80;0.80;;;21.00;1.00;;;;;;5016084;28;20072;-75
2021/05/08 12:31:26;;;;;;;1.17;1.08;;;20.90;1.00;;;;;;5030883;28;20018;-74
2021/05/08 12:33:53;;;;;;;2.28;1.23;;;20.70;1.00;;;;;;5024997;28;20067;-75
2021/05/08 12:36:22;;;;;;;4.82;1.33;;;20.30;1.00;;;;;;5020925;28;20030;-77
2021/05/08 12:38:49;;;;;;;0.90;0.88;;;20.30;1.00;;;;;;5041361;28;20036;-75
2021/05/08 12:41:35;;;;;;;1.08;0.98;;;20.20;1.00;;;;;;5015100;28;20026;-74
2021/05/08 12:44:09;;;;;;;3.25;1.25;;;20.30;1.00;;;;;;5039592;28;20037;-75
2021/05/08 12:46:58;;;;;;;1.40;1.30;;;20.30;1.00;;;;;;5020383;28;20030;-75
2021/05/08 12:49:25;;;;;;;1.50;1.02;;;20.30;1.00;;;;;;5012484;28;20081;-75
2021/05/08 12:51:52;;;;;;;1.02;0.80;;;20.20;1.00;;;;;;5018455;28;20030;-75
2021/05/08 12:54:25;;;;;;;2.30;2.10;;;20.10;1.00;;;;;;5045011;28;20053;-75
2021/05/08 12:56:53;;;;;;;1.55;1.38;;;20.60;1.00;;;;;;5039142;28;20030;-76
2021/05/08 12:59:30;;;;;;;1.00;0.90;;;20.50;1.00;;;;;;5031514;28;20021;-77
2021/05/08 13:02:22;;;;;;;1.27;1.17;;;20.80;1.00;;;;;;5020056;28;20026;-75
2021/05/08 13:04:49;;;;;;;0.65;0.65;;;20.70;1.00;;;;;;5018038;28;20527;-77